KNUW/NUW METAR and TAF weather

Enter ICAO airport designator
Station Type Date Time Source
KNUW METAR 2018/12/19 03:56 UTC NOAA

KNUW 190356Z 22006KT 10SM SCT035 SCT045 BKN100 BKN180 09/05 A2993 RMK AO2 PK WND 26026/0258 WSHFT 0248 RAE26 SLP135 P0005 T00890050 $


Station Type Date Time Source
KNUW Decoded METAR 2018/12/19 03:56 UTC NOAA

NAS WHIDBEY ISLAND, WA, United States (KNUW) 48-21N 122-39W 8M
Dec 18, 2018 - 10:56 PM EST / 2018.12.19 0356 UTC
Wind: from the SW (220 degrees) at 7 MPH (6 KT):0
Visibility: 10 mile(s):0
Sky conditions: mostly cloudy
Precipitation last hour: 0.05 inches
Temperature: 48.0 F (8.9 C)
Dew Point: 41.0 F (5.0 C)
Relative Humidity: 76%
Pressure (altimeter): 29.93 in. Hg (1013 hPa)
ob: KNUW 190356Z 22006KT 10SM SCT035 SCT045 BKN100 BKN180 09/05 A2993 RMK AO2 PK WND 26026/0258 WSHFT 0248 RAE26 SLP135 P0005 T00890050
cycle: 4

Station Type Date Time Source
KNUW TAF 2018/12/18 23:57 UTC NOAA

TAF KNUW 1823/1923 15010G16KT 9999 VCSH SCT025 BKN050 BKN100 OVC160 640509 641404 520003 540306 550909 QNH2974INS
TEMPO 1823/1905 14012G20KT 9999 -SHRA SCT014 BKN020 OVC050
FM190500 15010KT 9999 -SHRA SCT020 BKN050 BKN120 640409 540306 550909 QNH2980INS
FM191100 15010KT 9999 VCSH SCT035 BKN050 BKN120 BKN250 640509 540306 550909 QNH2988INS
TEMPO 1917/1923 15015G24KT 9999 SCT050 BKN120 BKN250 T13/1823Z T08/1913Z FS30028


Example: see airport list